Kranj, Slovenia
Current Conditions -  °F | °C
As of 11:30 AM on Thursday 23 Oct 2014 (Local Time) from LJLJ Reporting Station
Light Rain Light Rain  
Wind Chill: 39°   Ceiling: 3300
Heat Index: 43°   Visibility: 5mi
Dew Point: 41°   Wind: 6mph
Humidity: 93%   Direction: 130°SE
Pressure: 29.77"   Gusts: NA
Location:  46.24°N, 14.36°E
Report Text: LJLJ 230930Z 13005KT 080V160 8000 -RA SCT005 BKN033 OVC05006/05 Q1008 NOSIG
Loading
Personal Weather Stations






























Interactive Weather Map
Tropical Storm Tracking
New forecast layout! Learn more

10-Day Weather Forecast

Advertisements
Track Severe Weather on mobile